sensor_id;sensor_type;location;lat;lon;timestamp;temperature;humidity
57576;DHT22;43412;-33.800;150.804;2022-12-13T00:00:27;28.40;67.10
57576;DHT22;43412;-33.800;150.804;2022-12-13T00:02:55;28.50;62.50
57576;DHT22;43412;-33.800;150.804;2022-12-13T00:05:21;28.00;62.80
57576;DHT22;43412;-33.800;150.804;2022-12-13T00:07:48;28.00;64.60
57576;DHT22;43412;-33.800;150.804;2022-12-13T00:10:16;28.10;62.90
57576;DHT22;43412;-33.800;150.804;2022-12-13T00:12:42;28.00;63.10
57576;DHT22;43412;-33.800;150.804;2022-12-13T00:15:09;27.40;63.60
57576;DHT22;43412;-33.800;150.804;2022-12-13T00:17:36;27.40;65.00
57576;DHT22;43412;-33.800;150.804;2022-12-13T00:20:03;27.70;63.30
57576;DHT22;43412;-33.800;150.804;2022-12-13T00:22:30;27.90;62.80
57576;DHT22;43412;-33.800;150.804;2022-12-13T00:24:57;28.10;62.60
57576;DHT22;43412;-33.800;150.804;2022-12-13T00:27:23;28.20;61.80
57576;DHT22;43412;-33.800;150.804;2022-12-13T00:29:50;28.40;62.20
57576;DHT22;43412;-33.800;150.804;2022-12-13T00:32:17;28.60;64.00
57576;DHT22;43412;-33.800;150.804;2022-12-13T00:34:43;28.90;64.60
57576;DHT22;43412;-33.800;150.804;2022-12-13T00:37:10;29.30;64.80
57576;DHT22;43412;-33.800;150.804;2022-12-13T00:39:37;29.50;62.60
57576;DHT22;43412;-33.800;150.804;2022-12-13T00:42:04;29.50;60.40
57576;DHT22;43412;-33.800;150.804;2022-12-13T00:44:31;29.00;61.20
57576;DHT22;43412;-33.800;150.804;2022-12-13T00:46:58;29.10;61.10
57576;DHT22;43412;-33.800;150.804;2022-12-13T00:49:24;29.10;59.50
57576;DHT22;43412;-33.800;150.804;2022-12-13T00:51:51;29.10;60.40
57576;DHT22;43412;-33.800;150.804;2022-12-13T00:54:18;29.20;60.70
57576;DHT22;43412;-33.800;150.804;2022-12-13T00:56:45;29.30;61.30
57576;DHT22;43412;-33.800;150.804;2022-12-13T00:59:12;29.50;61.10
57576;DHT22;43412;-33.800;150.804;2022-12-13T01:01:40;29.70;59.40
57576;DHT22;43412;-33.800;150.804;2022-12-13T01:04:06;29.60;59.70
57576;DHT22;43412;-33.800;150.804;2022-12-13T01:06:40;29.50;58.90
57576;DHT22;43412;-33.800;150.804;2022-12-13T01:09:18;29.30;58.40
57576;DHT22;43412;-33.800;150.804;2022-12-13T01:11:46;29.10;59.60
57576;DHT22;43412;-33.800;150.804;2022-12-13T01:14:13;29.20;60.40
57576;DHT22;43412;-33.800;150.804;2022-12-13T01:16:39;29.40;57.90
57576;DHT22;43412;-33.800;150.804;2022-12-13T01:19:06;29.00;59.30
57576;DHT22;43412;-33.800;150.804;2022-12-13T01:21:33;28.90;59.30
57576;DHT22;43412;-33.800;150.804;2022-12-13T01:24:01;29.10;59.30
57576;DHT22;43412;-33.800;150.804;2022-12-13T01:26:28;29.30;59.50
57576;DHT22;43412;-33.800;150.804;2022-12-13T01:28:54;29.60;60.30
57576;DHT22;43412;-33.800;150.804;2022-12-13T01:31:21;30.10;60.50
57576;DHT22;43412;-33.800;150.804;2022-12-13T01:33:48;30.60;64.50
57576;DHT22;43412;-33.800;150.804;2022-12-13T01:36:16;31.10;61.20
57576;DHT22;43412;-33.800;150.804;2022-12-13T01:38:43;31.30;58.90
57576;DHT22;43412;-33.800;150.804;2022-12-13T01:41:17;31.20;59.50
57576;DHT22;43412;-33.800;150.804;2022-12-13T01:43:49;31.00;58.50
57576;DHT22;43412;-33.800;150.804;2022-12-13T01:46:16;30.50;59.70
57576;DHT22;43412;-33.800;150.804;2022-12-13T01:48:45;30.00;59.40
57576;DHT22;43412;-33.800;150.804;2022-12-13T01:51:14;30.00;60.60
57576;DHT22;43412;-33.800;150.804;2022-12-13T01:53:43;30.00;59.70
57576;DHT22;43412;-33.800;150.804;2022-12-13T01:56:17;29.70;60.20
57576;DHT22;43412;-33.800;150.804;2022-12-13T01:58:45;29.60;60.30
57576;DHT22;43412;-33.800;150.804;2022-12-13T02:01:12;29.70;61.10
57576;DHT22;43412;-33.800;150.804;2022-12-13T02:03:39;30.10;63.30
57576;DHT22;43412;-33.800;150.804;2022-12-13T02:06:40;30.70;63.70
57576;DHT22;43412;-33.800;150.804;2022-12-13T02:08:59;31.30;64.30
57576;DHT22;43412;-33.800;150.804;2022-12-13T02:11:26;31.90;61.60
57576;DHT22;43412;-33.800;150.804;2022-12-13T02:13:53;32.30;61.90
57576;DHT22;43412;-33.800;150.804;2022-12-13T02:16:37;32.60;58.50
57576;DHT22;43412;-33.800;150.804;2022-12-13T02:19:19;32.30;59.30
57576;DHT22;43412;-33.800;150.804;2022-12-13T02:32:11;32.90;58.70
57576;DHT22;43412;-33.800;150.804;2022-12-13T02:34:46;32.90;59.20
57576;DHT22;43412;-33.800;150.804;2022-12-13T02:37:19;32.80;57.10
57576;DHT22;43412;-33.800;150.804;2022-12-13T02:39:59;32.50;57.40
57576;DHT22;43412;-33.800;150.804;2022-12-13T02:42:43;32.30;57.20
57576;DHT22;43412;-33.800;150.804;2022-12-13T02:45:12;32.20;57.40
57576;DHT22;43412;-33.800;150.804;2022-12-13T02:47:41;32.00;56.40
57576;DHT22;43412;-33.800;150.804;2022-12-13T02:50:09;31.60;54.70
57576;DHT22;43412;-33.800;150.804;2022-12-13T02:52:37;31.30;54.80
57576;DHT22;43412;-33.800;150.804;2022-12-13T02:55:06;31.20;55.70
57576;DHT22;43412;-33.800;150.804;2022-12-13T02:57:37;31.20;54.40
57576;DHT22;43412;-33.800;150.804;2022-12-13T03:00:06;31.00;57.00
57576;DHT22;43412;-33.800;150.804;2022-12-13T03:08:01;32.10;57.30
57576;DHT22;43412;-33.800;150.804;2022-12-13T03:10:32;32.10;56.00
57576;DHT22;43412;-33.800;150.804;2022-12-13T03:13:00;32.10;58.30
57576;DHT22;43412;-33.800;150.804;2022-12-13T03:18:16;32.50;57.30
57576;DHT22;43412;-33.800;150.804;2022-12-13T03:20:48;32.70;56.20
57576;DHT22;43412;-33.800;150.804;2022-12-13T03:23:16;32.80;57.80
57576;DHT22;43412;-33.800;150.804;2022-12-13T03:25:43;32.80;54.70
57576;DHT22;43412;-33.800;150.804;2022-12-13T03:28:10;32.50;54.80
57576;DHT22;43412;-33.800;150.804;2022-12-13T03:30:37;32.10;54.90
57576;DHT22;43412;-33.800;150.804;2022-12-13T03:33:04;32.10;55.90
57576;DHT22;43412;-33.800;150.804;2022-12-13T03:35:31;32.20;56.40
57576;DHT22;43412;-33.800;150.804;2022-12-13T03:37:58;32.30;56.80
57576;DHT22;43412;-33.800;150.804;2022-12-13T03:40:26;32.50;57.20
57576;DHT22;43412;-33.800;150.804;2022-12-13T03:42:54;32.60;55.30
57576;DHT22;43412;-33.800;150.804;2022-12-13T03:45:21;32.40;56.10
57576;DHT22;43412;-33.800;150.804;2022-12-13T03:47:47;32.40;57.80
57576;DHT22;43412;-33.800;150.804;2022-12-13T03:50:14;32.50;56.70
57576;DHT22;43412;-33.800;150.804;2022-12-13T03:52:41;32.60;56.00
57576;DHT22;43412;-33.800;150.804;2022-12-13T03:55:09;32.60;57.00
57576;DHT22;43412;-33.800;150.804;2022-12-13T03:57:35;32.30;56.20
57576;DHT22;43412;-33.800;150.804;2022-12-13T04:00:02;32.30;57.00
57576;DHT22;43412;-33.800;150.804;2022-12-13T04:02:29;32.30;55.70
57576;DHT22;43412;-33.800;150.804;2022-12-13T04:04:56;32.60;55.50
57576;DHT22;43412;-33.800;150.804;2022-12-13T04:07:22;32.50;56.10
57576;DHT22;43412;-33.800;150.804;2022-12-13T04:09:49;32.40;54.70
57576;DHT22;43412;-33.800;150.804;2022-12-13T04:12:16;31.90;54.10
57576;DHT22;43412;-33.800;150.804;2022-12-13T04:15:00;31.30;56.20
57576;DHT22;43412;-33.800;150.804;2022-12-13T04:17:27;30.90;56.10
57576;DHT22;43412;-33.800;150.804;2022-12-13T04:19:54;30.70;56.80
57576;DHT22;43412;-33.800;150.804;2022-12-13T04:22:20;30.80;56.40
57576;DHT22;43412;-33.800;150.804;2022-12-13T04:24:47;31.00;56.00
57576;DHT22;43412;-33.800;150.804;2022-12-13T04:27:15;31.00;55.80
57576;DHT22;43412;-33.800;150.804;2022-12-13T04:29:42;31.10;57.20
57576;DHT22;43412;-33.800;150.804;2022-12-13T04:32:09;31.20;56.40
57576;DHT22;43412;-33.800;150.804;2022-12-13T04:34:35;31.30;56.40
57576;DHT22;43412;-33.800;150.804;2022-12-13T04:37:02;31.30;55.90
57576;DHT22;43412;-33.800;150.804;2022-12-13T04:39:29;31.30;56.00
57576;DHT22;43412;-33.800;150.804;2022-12-13T04:41:55;31.00;55.80
57576;DHT22;43412;-33.800;150.804;2022-12-13T04:44:22;30.90;55.60
57576;DHT22;43412;-33.800;150.804;2022-12-13T04:46:49;31.00;56.20
57576;DHT22;43412;-33.800;150.804;2022-12-13T04:49:15;30.80;55.30
57576;DHT22;43412;-33.800;150.804;2022-12-13T04:51:43;30.60;55.50
57576;DHT22;43412;-33.800;150.804;2022-12-13T04:54:12;30.60;56.90
57576;DHT22;43412;-33.800;150.804;2022-12-13T04:56:39;30.80;56.20
57576;DHT22;43412;-33.800;150.804;2022-12-13T04:59:06;30.80;55.70
57576;DHT22;43412;-33.800;150.804;2022-12-13T05:01:32;30.80;56.10
57576;DHT22;43412;-33.800;150.804;2022-12-13T05:04:00;30.80;56.60
57576;DHT22;43412;-33.800;150.804;2022-12-13T05:06:27;30.90;58.40
57576;DHT22;43412;-33.800;150.804;2022-12-13T05:08:54;31.00;57.70
57576;DHT22;43412;-33.800;150.804;2022-12-13T05:11:21;31.00;55.10
57576;DHT22;43412;-33.800;150.804;2022-12-13T05:13:47;31.00;55.50
57576;DHT22;43412;-33.800;150.804;2022-12-13T05:19:19;31.20;57.00
57576;DHT22;43412;-33.800;150.804;2022-12-13T05:21:47;31.10;56.00
57576;DHT22;43412;-33.800;150.804;2022-12-13T05:24:14;30.80;56.10
57576;DHT22;43412;-33.800;150.804;2022-12-13T05:26:41;30.40;56.70
57576;DHT22;43412;-33.800;150.804;2022-12-13T05:29:08;30.20;57.30
57576;DHT22;43412;-33.800;150.804;2022-12-13T05:31:37;30.10;56.10
57576;DHT22;43412;-33.800;150.804;2022-12-13T05:34:04;30.10;56.80
57576;DHT22;43412;-33.800;150.804;2022-12-13T05:36:31;30.10;59.00
57576;DHT22;43412;-33.800;150.804;2022-12-13T05:39:02;30.10;57.60
57576;DHT22;43412;-33.800;150.804;2022-12-13T05:41:30;30.10;57.60
57576;DHT22;43412;-33.800;150.804;2022-12-13T05:43:58;30.10;57.70
57576;DHT22;43412;-33.800;150.804;2022-12-13T05:46:25;30.10;56.40
57576;DHT22;43412;-33.800;150.804;2022-12-13T05:48:52;29.70;56.80
57576;DHT22;43412;-33.800;150.804;2022-12-13T05:51:18;29.40;57.80
57576;DHT22;43412;-33.800;150.804;2022-12-13T05:53:45;29.40;57.90
57576;DHT22;43412;-33.800;150.804;2022-12-13T05:56:12;29.50;58.10
57576;DHT22;43412;-33.800;150.804;2022-12-13T05:58:39;29.50;57.70
57576;DHT22;43412;-33.800;150.804;2022-12-13T06:01:07;29.50;57.40
57576;DHT22;43412;-33.800;150.804;2022-12-13T06:03:34;29.40;56.70
57576;DHT22;43412;-33.800;150.804;2022-12-13T06:06:03;29.40;56.70
57576;DHT22;43412;-33.800;150.804;2022-12-13T06:08:29;29.40;58.00
57576;DHT22;43412;-33.800;150.804;2022-12-13T06:10:57;29.50;56.80
57576;DHT22;43412;-33.800;150.804;2022-12-13T06:13:24;29.60;56.00
57576;DHT22;43412;-33.800;150.804;2022-12-13T06:15:51;29.60;56.30
57576;DHT22;43412;-33.800;150.804;2022-12-13T06:18:18;29.50;56.00
57576;DHT22;43412;-33.800;150.804;2022-12-13T06:20:52;29.50;56.50
57576;DHT22;43412;-33.800;150.804;2022-12-13T06:23:20;29.50;55.70
57576;DHT22;43412;-33.800;150.804;2022-12-13T06:25:47;29.40;56.40
57576;DHT22;43412;-33.800;150.804;2022-12-13T06:28:14;29.30;55.80
57576;DHT22;43412;-33.800;150.804;2022-12-13T06:30:41;29.20;56.40
57576;DHT22;43412;-33.800;150.804;2022-12-13T06:33:08;29.10;56.70
57576;DHT22;43412;-33.800;150.804;2022-12-13T06:35:36;29.00;57.10
57576;DHT22;43412;-33.800;150.804;2022-12-13T06:38:03;28.90;56.60
57576;DHT22;43412;-33.800;150.804;2022-12-13T06:40:30;28.80;56.90
57576;DHT22;43412;-33.800;150.804;2022-12-13T06:42:56;28.80;57.60
57576;DHT22;43412;-33.800;150.804;2022-12-13T06:45:23;28.80;56.70
57576;DHT22;43412;-33.800;150.804;2022-12-13T06:47:50;28.70;55.70
57576;DHT22;43412;-33.800;150.804;2022-12-13T06:50:17;28.60;55.70
57576;DHT22;43412;-33.800;150.804;2022-12-13T06:52:45;28.50;55.70
57576;DHT22;43412;-33.800;150.804;2022-12-13T06:55:12;28.40;55.40
57576;DHT22;43412;-33.800;150.804;2022-12-13T06:57:38;28.40;56.20
57576;DHT22;43412;-33.800;150.804;2022-12-13T07:00:05;28.40;55.50
57576;DHT22;43412;-33.800;150.804;2022-12-13T07:02:32;28.30;55.60
57576;DHT22;43412;-33.800;150.804;2022-12-13T07:04:59;28.20;57.00
57576;DHT22;43412;-33.800;150.804;2022-12-13T07:07:26;28.10;56.80
57576;DHT22;43412;-33.800;150.804;2022-12-13T07:09:52;28.10;56.50
57576;DHT22;43412;-33.800;150.804;2022-12-13T07:12:19;28.00;56.40
57576;DHT22;43412;-33.800;150.804;2022-12-13T07:14:46;28.00;56.90
57576;DHT22;43412;-33.800;150.804;2022-12-13T07:17:13;28.00;57.00
57576;DHT22;43412;-33.800;150.804;2022-12-13T07:19:40;27.90;56.40
57576;DHT22;43412;-33.800;150.804;2022-12-13T07:22:06;27.80;56.30
57576;DHT22;43412;-33.800;150.804;2022-12-13T07:24:33;27.70;56.90
57576;DHT22;43412;-33.800;150.804;2022-12-13T07:27:01;27.60;57.30
57576;DHT22;43412;-33.800;150.804;2022-12-13T07:29:28;27.60;57.20
57576;DHT22;43412;-33.800;150.804;2022-12-13T07:31:54;27.50;57.90
57576;DHT22;43412;-33.800;150.804;2022-12-13T07:34:21;27.40;58.00
57576;DHT22;43412;-33.800;150.804;2022-12-13T07:36:48;27.40;58.00
57576;DHT22;43412;-33.800;150.804;2022-12-13T07:39:15;27.30;58.90
57576;DHT22;43412;-33.800;150.804;2022-12-13T07:41:42;27.20;58.70
57576;DHT22;43412;-33.800;150.804;2022-12-13T07:44:08;27.10;58.30
57576;DHT22;43412;-33.800;150.804;2022-12-13T07:46:35;27.00;58.30
57576;DHT22;43412;-33.800;150.804;2022-12-13T07:49:03;27.00;58.30
57576;DHT22;43412;-33.800;150.804;2022-12-13T07:51:31;26.90;59.10
57576;DHT22;43412;-33.800;150.804;2022-12-13T07:53:58;26.90;58.60
57576;DHT22;43412;-33.800;150.804;2022-12-13T07:56:25;26.80;59.10
57576;DHT22;43412;-33.800;150.804;2022-12-13T07:58:52;26.70;59.20
57576;DHT22;43412;-33.800;150.804;2022-12-13T08:01:18;26.60;59.50
57576;DHT22;43412;-33.800;150.804;2022-12-13T08:03:48;26.60;59.80
57576;DHT22;43412;-33.800;150.804;2022-12-13T08:06:15;26.50;59.40
57576;DHT22;43412;-33.800;150.804;2022-12-13T08:08:44;26.50;59.80
57576;DHT22;43412;-33.800;150.804;2022-12-13T08:11:12;26.40;59.50
57576;DHT22;43412;-33.800;150.804;2022-12-13T08:13:40;26.30;59.80
57576;DHT22;43412;-33.800;150.804;2022-12-13T08:16:08;26.20;60.20
57576;DHT22;43412;-33.800;150.804;2022-12-13T08:18:35;26.00;60.50
57576;DHT22;43412;-33.800;150.804;2022-12-13T08:21:05;25.90;60.40
57576;DHT22;43412;-33.800;150.804;2022-12-13T08:23:32;25.80;60.80
57576;DHT22;43412;-33.800;150.804;2022-12-13T08:25:59;25.70;60.90
57576;DHT22;43412;-33.800;150.804;2022-12-13T08:28:26;25.60;61.40
57576;DHT22;43412;-33.800;150.804;2022-12-13T08:30:53;25.50;61.50
57576;DHT22;43412;-33.800;150.804;2022-12-13T08:33:20;25.40;61.60
57576;DHT22;43412;-33.800;150.804;2022-12-13T08:35:47;25.30;61.80
57576;DHT22;43412;-33.800;150.804;2022-12-13T08:38:14;25.20;62.00
57576;DHT22;43412;-33.800;150.804;2022-12-13T08:40:40;25.10;62.10
57576;DHT22;43412;-33.800;150.804;2022-12-13T08:43:07;25.00;62.30
57576;DHT22;43412;-33.800;150.804;2022-12-13T08:45:34;24.90;62.40
57576;DHT22;43412;-33.800;150.804;2022-12-13T08:48:01;24.80;62.70
57576;DHT22;43412;-33.800;150.804;2022-12-13T08:50:28;24.70;62.70
57576;DHT22;43412;-33.800;150.804;2022-12-13T08:52:55;24.60;62.90
57576;DHT22;43412;-33.800;150.804;2022-12-13T08:55:22;24.50;63.30
57576;DHT22;43412;-33.800;150.804;2022-12-13T08:57:49;24.40;63.30
57576;DHT22;43412;-33.800;150.804;2022-12-13T09:00:19;24.40;63.60
57576;DHT22;43412;-33.800;150.804;2022-12-13T09:02:46;24.20;63.70
57576;DHT22;43412;-33.800;150.804;2022-12-13T09:05:13;24.20;64.00
57576;DHT22;43412;-33.800;150.804;2022-12-13T09:07:40;24.10;64.20
57576;DHT22;43412;-33.800;150.804;2022-12-13T09:10:08;24.00;64.30
57576;DHT22;43412;-33.800;150.804;2022-12-13T09:12:35;23.90;64.90
57576;DHT22;43412;-33.800;150.804;2022-12-13T09:15:02;23.80;65.60
57576;DHT22;43412;-33.800;150.804;2022-12-13T09:17:29;23.70;70.50
57576;DHT22;43412;-33.800;150.804;2022-12-13T09:19:57;23.60;73.50
57576;DHT22;43412;-33.800;150.804;2022-12-13T09:22:24;23.50;75.50
57576;DHT22;43412;-33.800;150.804;2022-12-13T09:24:51;23.30;76.00
57576;DHT22;43412;-33.800;150.804;2022-12-13T09:27:18;23.20;77.40
57576;DHT22;43412;-33.800;150.804;2022-12-13T09:29:46;23.10;79.30
57576;DHT22;43412;-33.800;150.804;2022-12-13T09:32:12;23.00;79.40
57576;DHT22;43412;-33.800;150.804;2022-12-13T09:34:39;22.90;81.10
57576;DHT22;43412;-33.800;150.804;2022-12-13T09:37:06;22.70;82.00
57576;DHT22;43412;-33.800;150.804;2022-12-13T09:39:33;22.60;82.00
57576;DHT22;43412;-33.800;150.804;2022-12-13T09:42:00;22.50;82.30
57576;DHT22;43412;-33.800;150.804;2022-12-13T09:44:37;22.30;83.20
57576;DHT22;43412;-33.800;150.804;2022-12-13T09:47:06;22.20;83.90
57576;DHT22;43412;-33.800;150.804;2022-12-13T09:49:39;22.10;83.90
57576;DHT22;43412;-33.800;150.804;2022-12-13T09:52:09;22.00;83.40
57576;DHT22;43412;-33.800;150.804;2022-12-13T09:54:36;21.90;83.50
57576;DHT22;43412;-33.800;150.804;2022-12-13T09:57:08;21.80;83.20
57576;DHT22;43412;-33.800;150.804;2022-12-13T09:59:39;21.80;82.10
57576;DHT22;43412;-33.800;150.804;2022-12-13T10:02:13;21.80;83.50
57576;DHT22;43412;-33.800;150.804;2022-12-13T10:04:42;21.70;84.80
57576;DHT22;43412;-33.800;150.804;2022-12-13T10:07:15;21.70;85.60
57576;DHT22;43412;-33.800;150.804;2022-12-13T10:09:43;21.60;85.70
57576;DHT22;43412;-33.800;150.804;2022-12-13T10:12:11;21.50;86.40
57576;DHT22;43412;-33.800;150.804;2022-12-13T10:14:41;21.40;87.10
57576;DHT22;43412;-33.800;150.804;2022-12-13T10:17:08;21.40;88.70
57576;DHT22;43412;-33.800;150.804;2022-12-13T10:19:39;21.30;88.40
57576;DHT22;43412;-33.800;150.804;2022-12-13T10:22:12;21.20;89.10
57576;DHT22;43412;-33.800;150.804;2022-12-13T10:27:14;21.00;89.40
57576;DHT22;43412;-33.800;150.804;2022-12-13T10:29:58;20.90;89.90
57576;DHT22;43412;-33.800;150.804;2022-12-13T10:32:25;20.80;90.00
57576;DHT22;43412;-33.800;150.804;2022-12-13T10:34:51;20.70;90.50
57576;DHT22;43412;-33.800;150.804;2022-12-13T10:37:28;20.60;90.30
57576;DHT22;43412;-33.800;150.804;2022-12-13T10:39:56;20.50;90.50
57576;DHT22;43412;-33.800;150.804;2022-12-13T10:42:24;20.50;91.10
57576;DHT22;43412;-33.800;150.804;2022-12-13T10:47:46;20.40;91.00
57576;DHT22;43412;-33.800;150.804;2022-12-13T10:50:20;20.40;91.10
57576;DHT22;43412;-33.800;150.804;2022-12-13T10:52:48;20.40;91.10
57576;DHT22;43412;-33.800;150.804;2022-12-13T10:55:28;20.30;91.30
57576;DHT22;43412;-33.800;150.804;2022-12-13T10:57:58;20.20;91.40
57576;DHT22;43412;-33.800;150.804;2022-12-13T11:00:42;20.20;91.60
57576;DHT22;43412;-33.800;150.804;2022-12-13T11:03:29;20.20;91.80
57576;DHT22;43412;-33.800;150.804;2022-12-13T11:06:15;20.10;92.10
57576;DHT22;43412;-33.800;150.804;2022-12-13T11:08:45;20.10;92.00
57576;DHT22;43412;-33.800;150.804;2022-12-13T11:11:25;20.00;92.10
57576;DHT22;43412;-33.800;150.804;2022-12-13T11:13:53;20.00;92.20
57576;DHT22;43412;-33.800;150.804;2022-12-13T11:16:24;19.90;92.50
57576;DHT22;43412;-33.800;150.804;2022-12-13T11:18:53;19.90;92.70
57576;DHT22;43412;-33.800;150.804;2022-12-13T11:21:24;19.90;92.90
57576;DHT22;43412;-33.800;150.804;2022-12-13T11:23:51;19.80;92.90
57576;DHT22;43412;-33.800;150.804;2022-12-13T11:26:21;19.70;93.00
57576;DHT22;43412;-33.800;150.804;2022-12-13T11:39:25;19.70;93.80
57576;DHT22;43412;-33.800;150.804;2022-12-13T11:47:26;19.60;93.90
57576;DHT22;43412;-33.800;150.804;2022-12-13T11:49:56;19.50;94.00
57576;DHT22;43412;-33.800;150.804;2022-12-13T11:52:33;19.40;94.20
57576;DHT22;43412;-33.800;150.804;2022-12-13T11:57:48;19.30;94.50
57576;DHT22;43412;-33.800;150.804;2022-12-13T12:00:30;19.20;94.60
57576;DHT22;43412;-33.800;150.804;2022-12-13T12:03:02;19.20;94.90
57576;DHT22;43412;-33.800;150.804;2022-12-13T12:05:35;19.10;94.90
57576;DHT22;43412;-33.800;150.804;2022-12-13T12:08:11;19.10;95.10
57576;DHT22;43412;-33.800;150.804;2022-12-13T12:10:42;19.00;95.50
57576;DHT22;43412;-33.800;150.804;2022-12-13T12:15:40;19.00;95.60
57576;DHT22;43412;-33.800;150.804;2022-12-13T12:18:14;18.90;95.50
57576;DHT22;43412;-33.800;150.804;2022-12-13T12:21:02;18.80;95.50
57576;DHT22;43412;-33.800;150.804;2022-12-13T12:26:15;18.70;96.20
57576;DHT22;43412;-33.800;150.804;2022-12-13T12:33:52;18.60;96.50
57576;DHT22;43412;-33.800;150.804;2022-12-13T12:54:17;18.20;98.40
57576;DHT22;43412;-33.800;150.804;2022-12-13T12:56:53;18.10;98.60
57576;DHT22;43412;-33.800;150.804;2022-12-13T12:59:34;18.10;99.00
57576;DHT22;43412;-33.800;150.804;2022-12-13T13:02:09;18.00;99.20
57576;DHT22;43412;-33.800;150.804;2022-12-13T13:04:41;18.10;99.30
57576;DHT22;43412;-33.800;150.804;2022-12-13T13:10:11;17.90;99.60
57576;DHT22;43412;-33.800;150.804;2022-12-13T13:12:39;17.90;99.80
57576;DHT22;43412;-33.800;150.804;2022-12-13T13:17:56;17.90;99.90
57576;DHT22;43412;-33.800;150.804;2022-12-13T13:20:23;17.80;99.90
57576;DHT22;43412;-33.800;150.804;2022-12-13T13:22:56;17.70;99.90
57576;DHT22;43412;-33.800;150.804;2022-12-13T13:30:38;17.70;99.90
57576;DHT22;43412;-33.800;150.804;2022-12-13T13:33:41;17.60;99.90
57576;DHT22;43412;-33.800;150.804;2022-12-13T13:36:08;17.60;99.90
57576;DHT22;43412;-33.800;150.804;2022-12-13T13:38:48;17.60;99.90
57576;DHT22;43412;-33.800;150.804;2022-12-13T13:44:00;17.50;99.90
57576;DHT22;43412;-33.800;150.804;2022-12-13T13:46:27;17.50;99.90
57576;DHT22;43412;-33.800;150.804;2022-12-13T13:48:59;17.40;99.90
57576;DHT22;43412;-33.800;150.804;2022-12-13T13:57:20;17.30;99.90
57576;DHT22;43412;-33.800;150.804;2022-12-13T14:07:20;17.00;99.90
57576;DHT22;43412;-33.800;150.804;2022-12-13T14:17:37;16.90;99.90
57576;DHT22;43412;-33.800;150.804;2022-12-13T14:20:27;16.90;99.90
57576;DHT22;43412;-33.800;150.804;2022-12-13T14:30:21;16.90;99.90
57576;DHT22;43412;-33.800;150.804;2022-12-13T14:32:49;16.90;99.90
57576;DHT22;43412;-33.800;150.804;2022-12-13T14:35:30;16.90;99.90
57576;DHT22;43412;-33.800;150.804;2022-12-13T14:38:01;16.90;99.90
57576;DHT22;43412;-33.800;150.804;2022-12-13T14:40:34;16.80;99.90
57576;DHT22;43412;-33.800;150.804;2022-12-13T14:43:02;16.80;99.90
57576;DHT22;43412;-33.800;150.804;2022-12-13T14:45:30;16.80;99.90
57576;DHT22;43412;-33.800;150.804;2022-12-13T14:47:58;16.80;99.90
57576;DHT22;43412;-33.800;150.804;2022-12-13T14:50:26;16.70;99.90
57576;DHT22;43412;-33.800;150.804;2022-12-13T14:52:53;16.70;99.90
57576;DHT22;43412;-33.800;150.804;2022-12-13T14:55:26;16.70;99.90
57576;DHT22;43412;-33.800;150.804;2022-12-13T14:57:54;16.70;99.90
57576;DHT22;43412;-33.800;150.804;2022-12-13T15:00:29;16.70;99.90
57576;DHT22;43412;-33.800;150.804;2022-12-13T15:02:57;16.70;99.90
57576;DHT22;43412;-33.800;150.804;2022-12-13T15:05:32;16.60;99.90
57576;DHT22;43412;-33.800;150.804;2022-12-13T15:07:59;16.60;99.90
57576;DHT22;43412;-33.800;150.804;2022-12-13T15:12:56;16.50;99.90
57576;DHT22;43412;-33.800;150.804;2022-12-13T15:15:30;16.50;99.90
57576;DHT22;43412;-33.800;150.804;2022-12-13T15:18:30;16.40;99.90
57576;DHT22;43412;-33.800;150.804;2022-12-13T15:20:51;16.40;99.90
57576;DHT22;43412;-33.800;150.804;2022-12-13T15:23:22;16.40;99.90
57576;DHT22;43412;-33.800;150.804;2022-12-13T15:26:00;16.30;99.90
57576;DHT22;43412;-33.800;150.804;2022-12-13T15:28:30;16.20;99.90
57576;DHT22;43412;-33.800;150.804;2022-12-13T15:30:59;16.30;99.90
57576;DHT22;43412;-33.800;150.804;2022-12-13T15:33:26;16.20;99.90
57576;DHT22;43412;-33.800;150.804;2022-12-13T15:38:30;16.20;99.70
57576;DHT22;43412;-33.800;150.804;2022-12-13T15:40:56;16.20;99.80
57576;DHT22;43412;-33.800;150.804;2022-12-13T15:43:30;16.10;99.90
57576;DHT22;43412;-33.800;150.804;2022-12-13T15:45:58;16.10;99.90
57576;DHT22;43412;-33.800;150.804;2022-12-13T15:48:26;16.10;99.90
57576;DHT22;43412;-33.800;150.804;2022-12-13T15:51:13;16.00;99.90
57576;DHT22;43412;-33.800;150.804;2022-12-13T15:53:59;16.00;99.90
57576;DHT22;43412;-33.800;150.804;2022-12-13T15:56:36;15.90;99.90
57576;DHT22;43412;-33.800;150.804;2022-12-13T15:59:04;15.90;99.90
57576;DHT22;43412;-33.800;150.804;2022-12-13T16:01:33;15.80;99.80
57576;DHT22;43412;-33.800;150.804;2022-12-13T16:04:01;15.80;99.60
57576;DHT22;43412;-33.800;150.804;2022-12-13T16:06:30;15.80;99.50
57576;DHT22;43412;-33.800;150.804;2022-12-13T16:09:02;15.70;99.50
57576;DHT22;43412;-33.800;150.804;2022-12-13T16:11:33;15.70;99.90
57576;DHT22;43412;-33.800;150.804;2022-12-13T16:16:45;15.60;99.90
57576;DHT22;43412;-33.800;150.804;2022-12-13T16:19:12;15.60;99.90
57576;DHT22;43412;-33.800;150.804;2022-12-13T16:21:40;15.50;99.90
57576;DHT22;43412;-33.800;150.804;2022-12-13T16:24:07;15.50;99.90
57576;DHT22;43412;-33.800;150.804;2022-12-13T16:26:34;15.40;99.90
57576;DHT22;43412;-33.800;150.804;2022-12-13T16:29:01;15.40;99.90
57576;DHT22;43412;-33.800;150.804;2022-12-13T16:31:28;15.30;99.90
57576;DHT22;43412;-33.800;150.804;2022-12-13T16:34:00;15.30;99.90
57576;DHT22;43412;-33.800;150.804;2022-12-13T16:36:27;15.20;99.90
57576;DHT22;43412;-33.800;150.804;2022-12-13T16:38:54;15.10;99.90
57576;DHT22;43412;-33.800;150.804;2022-12-13T16:41:21;15.10;99.90
57576;DHT22;43412;-33.800;150.804;2022-12-13T16:43:55;15.00;99.90
57576;DHT22;43412;-33.800;150.804;2022-12-13T16:46:23;15.00;99.90
57576;DHT22;43412;-33.800;150.804;2022-12-13T16:48:50;15.00;99.90
57576;DHT22;43412;-33.800;150.804;2022-12-13T16:51:17;15.00;99.90
57576;DHT22;43412;-33.800;150.804;2022-12-13T16:53:44;14.90;99.90
57576;DHT22;43412;-33.800;150.804;2022-12-13T16:56:11;14.90;99.90
57576;DHT22;43412;-33.800;150.804;2022-12-13T16:58:41;14.80;99.90
57576;DHT22;43412;-33.800;150.804;2022-12-13T17:01:12;14.80;99.90
57576;DHT22;43412;-33.800;150.804;2022-12-13T17:03:39;14.70;99.90